logo



Minimumtemperatur heute 14.3     Maximumtemperatur heute 27.8
Datum Zeit
MEZ
Lufttemperatur
C
Windrichtung
Grad
Wind Mittel
Km/h
Wind Min
Km/h
Wind Max
Km/h
rel. Feuchte
%
2016-07-23 22:00:00 19.6 220 1.1 2.3 5.6 84
2016-07-23 21:55:00 20.1 249 1.1 1.5 6.5 82
2016-07-23 21:50:00 20.1 277 2.3 5.5 11.3 82
2016-07-23 21:45:00 19.5 240 1.6 3.4 9.1 84
2016-07-23 21:40:00 19.9 253 1.6 3.8 8.6 82
2016-07-23 21:35:00 19.8 256 1.0 2.3 6.3 83
2016-07-23 21:30:00 19.7 228 0.9 1.2 5.5 83
2016-07-23 21:25:00 19.7 211 1.0 2.2 5.5 84
2016-07-23 21:20:00 20.0 255 1.2 1.7 6.7 83
2016-07-23 21:15:00 20.2 256 1.8 3.1 10.6 82
2016-07-23 21:10:00 20.1 238 1.9 3.9 10.4 82
2016-07-23 21:05:00 19.7 254 1.1 2.3 6.0 84
2016-07-23 21:00:00 20.1 259 1.4 2.1 6.7 82
2016-07-23 20:55:00 19.8 235 1.0 1.5 5.7 83
2016-07-23 20:50:00 19.8 261 1.0 1.9 4.8 83
2016-07-23 20:45:00 19.9 291 0.8 1.2 4.4 82
2016-07-23 20:40:00 20.6 246 1.2 1.6 7.6 79
2016-07-23 20:35:00 20.7 252 1.3 2.1 7.6 79
2016-07-23 20:30:00 20.6 240 1.3 2.5 6.6 80
2016-07-23 20:25:00 20.6 245 0.9 1.8 5.3 80
2016-07-23 20:20:00 20.8 217 0.3 0.0 2.6 79
2016-07-23 20:15:00 20.9 213 0.0 0.0 0.5 79
2016-07-23 20:10:00 20.9 266 0.0 0.0 0.5 80
2016-07-23 20:05:00 20.9 269 0.1 0.0 1.7 80
2016-07-23 20:00:00 21.1 285 0.7 1.0 3.8 79
2016-07-23 19:55:00 21.3 237 0.9 2.0 5.8 78
2016-07-23 19:50:00 21.6 245 1.2 2.4 7.6 77
2016-07-23 19:45:00 21.8 234 1.6 3.2 8.2 75
2016-07-23 19:40:00 21.5 245 1.3 3.7 6.2 76
2016-07-23 19:35:00 21.8 268 1.3 3.5 6.1 76
2016-07-23 19:30:00 21.9 256 1.3 2.1 7.9 76
2016-07-23 19:25:00 22.1 251 1.3 2.8 6.7 74
2016-07-23 19:20:00 22.3 261 1.4 2.9 7.4 74
2016-07-23 19:15:00 22.5 270 1.6 3.3 8.5 73
2016-07-23 19:10:00 22.7 230 2.0 5.2 8.7 74
2016-07-23 19:05:00 22.9 272 2.1 5.1 9.9 74
2016-07-23 19:00:00 23.3 255 2.3 5.5 12.3 71
2016-07-23 18:55:00 23.5 262 3.0 6.6 15.7 70
2016-07-23 18:50:00 23.6 252 3.1 6.9 14.2 69
2016-07-23 18:45:00 23.7 241 3.5 6.7 16.0 70
2016-07-23 18:40:00 23.6 241 2.8 7.6 14.8 73
2016-07-23 18:35:00 23.6 255 2.5 4.8 13.0 73
2016-07-23 18:30:00 23.3 253 1.8 1.7 13.2 75
2016-07-23 18:25:00 23.4 231 0.6 1.1 3.2 77
2016-07-23 18:20:00 23.3 297 0.9 0.8 6.1 77
2016-07-23 18:15:00 23.6 296 1.3 2.0 6.2 77
2016-07-23 18:10:00 23.9 301 1.3 3.2 6.8 76
2016-07-23 18:05:00 24.1 288 1.3 2.6 6.9 74
2016-07-23 18:00:00 24.4 283 0.7 0.8 7.7 72
2016-07-23 17:55:00 24.6 228 0.8 1.8 4.4 72
2016-07-23 17:50:00 24.9 270 1.1 2.2 6.7 68
2016-07-23 17:45:00 25.1 238 1.1 2.1 6.8 72
2016-07-23 17:40:00 25.0 248 1.1 1.7 6.0 72
2016-07-23 17:35:00 25.1 219 0.8 1.3 4.8 69
2016-07-23 17:30:00 26.0 299 1.2 2.3 6.1 71
2016-07-23 17:25:00 25.9 272 0.5 0.4 4.4 70
2016-07-23 17:20:00 26.7 279 0.7 0.5 5.3 66
2016-07-23 17:15:00 26.8 281 0.8 1.5 4.5 69
2016-07-23 17:10:00 27.2 250 1.1 1.6 7.1 66
2016-07-23 17:05:00 27.0 250 1.1 2.1 5.8 68
2016-07-23 17:00:00 26.9 256 1.1 2.6 6.2 69
2016-07-23 16:55:00 26.5 235 0.8 1.2 4.8 67
2016-07-23 16:50:00 26.1 225 0.6 1.2 4.0 73
2016-07-23 16:45:00 25.7 210 0.7 1.6 3.5 71
2016-07-23 16:40:00 25.7 223 0.9 1.4 5.8 70
2016-07-23 16:35:00 25.2 217 0.9 1.3 5.4 74
2016-07-23 16:30:00 25.4 207 0.7 1.3 4.2 77
2016-07-23 16:25:00 25.4 215 0.3 0.0 3.1 75
2016-07-23 16:20:00 26.2 170 0.1 0.0 1.8 74
2016-07-23 16:15:00 27.0 139 0.1 0.0 1.9 73
2016-07-23 16:10:00 27.1 212 0.0 0.0 1.0 68
2016-07-23 16:05:00 26.6 268 0.3 0.0 2.6 72
2016-07-23 16:00:00 25.5 147 0.3 0.1 2.7 73
2016-07-23 15:55:00 24.7 177 0.6 0.9 4.0 78
2016-07-23 15:50:00 24.8 211 0.9 1.3 5.1 77
2016-07-23 15:45:00 25.0 0 0.0 0.0 0.0 74
2016-07-23 15:40:00 25.4 187 0.9 1.9 5.0 75
2016-07-23 15:35:00 25.7 291 0.3 0.0 2.1 77
2016-07-23 15:30:00 26.4 184 0.7 1.1 4.0 77
2016-07-23 15:25:00 26.6 144 1.0 2.1 4.8 74
2016-07-23 15:20:00 26.3 131 0.9 1.7 4.0 74
2016-07-23 15:15:00 26.0 112 0.9 2.3 3.8 71
2016-07-23 15:10:00 25.9 91 0.9 2.5 3.9 70
2016-07-23 15:05:00 25.8 105 0.5 0.1 4.0 75
2016-07-23 15:00:00 24.7 198 0.9 2.8 3.6 77
2016-07-23 14:55:00 24.8 204 0.7 1.5 3.5 77
2016-07-23 14:50:00 25.8 171 1.1 2.4 5.1 76
2016-07-23 14:45:00 26.0 167 0.7 1.7 4.0 73
2016-07-23 14:40:00 26.6 139 0.6 1.3 3.4 73
2016-07-23 14:35:00 26.5 106 0.5 0.7 2.4 71
2016-07-23 14:30:00 26.2 100 0.4 0.0 3.5 73
2016-07-23 14:25:00 25.6 193 0.1 0.0 1.3 76
2016-07-23 14:20:00 25.7 157 0.7 0.9 4.0 74
2016-07-23 14:15:00 25.8 185 0.8 1.7 4.0 76
2016-07-23 14:10:00 25.8 146 0.6 0.2 3.9 72
2016-07-23 14:05:00 25.7 127 0.1 0.0 1.3 72
2016-07-23 14:00:00 25.8 214 0.0 0.0 0.6 76
2016-07-23 13:55:00 26.1 227 0.6 0.0 3.7 75
2016-07-23 13:50:00 26.8 243 0.6 0.0 4.1 73
2016-07-23 13:45:00 27.3 330 0.2 0.0 1.9 61
2016-07-23 13:40:00 27.1 303 0.7 1.8 3.7 61
2016-07-23 13:35:00 26.9 296 0.4 0.0 3.2 63
2016-07-23 13:30:00 26.3 195 0.7 1.5 3.3 76
2016-07-23 13:25:00 26.7 240 0.5 0.6 2.9 69
2016-07-23 13:20:00 27.4 256 0.8 1.1 4.6 62
2016-07-23 13:15:00 27.8 260 0.4 0.0 3.9 59
2016-07-23 13:10:00 27.7 79 0.5 0.2 2.9 60
2016-07-23 13:05:00 27.2 64 0.3 0.1 2.5 63
2016-07-23 13:00:00 27.2 106 0.6 0.4 3.9 63
2016-07-23 12:55:00 27.3 112 0.8 1.8 4.2 63
2016-07-23 12:50:00 27.5 106 1.0 0.6 5.7 60
2016-07-23 12:45:00 27.5 156 0.7 0.9 4.6 60
2016-07-23 12:40:00 27.2 249 0.3 0.1 2.6 63
2016-07-23 12:35:00 26.3 195 0.4 0.2 2.7 71
2016-07-23 12:30:00 26.0 210 0.5 0.0 3.0 72
2016-07-23 12:25:00 26.4 128 1.1 0.8 6.3 70
2016-07-23 12:20:00 26.7 125 0.9 0.8 6.0 64
2016-07-23 12:15:00 26.4 87 1.1 1.5 7.8 65
2016-07-23 12:10:00 26.2 101 1.7 2.9 10.1 64
2016-07-23 12:05:00 26.4 95 2.0 5.0 10.5 66
2016-07-23 12:00:00 26.4 80 2.2 2.7 11.9 65
2016-07-23 11:55:00 26.4 144 1.4 2.1 8.7 63
2016-07-23 11:50:00 26.3 114 1.8 1.1 10.4 63
2016-07-23 11:45:00 26.4 74 0.7 0.4 5.4 62
2016-07-23 11:40:00 25.9 94 0.7 1.2 4.0 60
2016-07-23 11:35:00 25.6 55 0.9 1.7 5.0 63
2016-07-23 11:30:00 25.5 124 0.6 0.7 4.3 64
2016-07-23 11:25:00 25.2 53 0.9 0.9 5.8 64
2016-07-23 11:20:00 25.1 258 1.1 0.7 6.0 67
2016-07-23 11:15:00 25.0 237 0.3 0.0 2.9 65
2016-07-23 11:10:00 24.8 140 0.7 0.5 5.0 62
2016-07-23 11:05:00 24.6 0 0.0 0.0 0.0 65
2016-07-23 11:00:00 24.5 270 1.5 3.3 7.7 67
2016-07-23 10:55:00 24.2 257 1.4 2.2 8.2 68
2016-07-23 10:50:00 24.6 269 1.6 0.8 9.8 67
2016-07-23 10:45:00 24.7 200 0.5 0.6 3.3 68
2016-07-23 10:40:00 24.4 266 0.6 0.4 3.7 66
2016-07-23 10:35:00 24.3 228 1.0 1.8 5.5 66
2016-07-23 10:30:00 24.5 273 0.7 0.3 4.8 67
2016-07-23 10:25:00 24.3 112 0.9 1.9 4.9 67
2016-07-23 10:20:00 23.7 91 0.6 0.2 4.7 70
2016-07-23 10:15:00 23.3 331 0.5 0.3 5.8 70
2016-07-23 10:10:00 23.4 41 0.6 0.2 5.9 69
2016-07-23 10:05:00 23.3 20 0.9 1.0 5.9 70
www.zamg.ac.at

klagenfurt@zamg.ac.at